sensor_id;sensor_type;location;lat;lon;timestamp;temperature;humidity
33803;DHT22;20110;53.120;5.786;2022-12-08T00:01:58;1.10;99.90
33803;DHT22;20110;53.120;5.786;2022-12-08T00:04:25;1.20;99.90
33803;DHT22;20110;53.120;5.786;2022-12-08T00:06:51;1.00;99.90
33803;DHT22;20110;53.120;5.786;2022-12-08T00:09:40;1.00;99.90
33803;DHT22;20110;53.120;5.786;2022-12-08T00:12:11;1.20;99.90
33803;DHT22;20110;53.120;5.786;2022-12-08T00:14:43;1.40;99.90
33803;DHT22;20110;53.120;5.786;2022-12-08T00:17:12;1.40;99.90
33803;DHT22;20110;53.120;5.786;2022-12-08T00:19:40;1.30;99.90
33803;DHT22;20110;53.120;5.786;2022-12-08T00:22:08;1.30;99.90
33803;DHT22;20110;53.120;5.786;2022-12-08T00:24:37;1.30;99.90
33803;DHT22;20110;53.120;5.786;2022-12-08T00:27:04;1.10;99.90
33803;DHT22;20110;53.120;5.786;2022-12-08T00:29:31;1.10;99.90
33803;DHT22;20110;53.120;5.786;2022-12-08T00:31:57;1.20;99.90
33803;DHT22;20110;53.120;5.786;2022-12-08T00:34:23;1.20;99.90
33803;DHT22;20110;53.120;5.786;2022-12-08T00:36:49;0.50;99.90
33803;DHT22;20110;53.120;5.786;2022-12-08T00:39:16;0.00;99.90
33803;DHT22;20110;53.120;5.786;2022-12-08T00:41:42;-0.40;99.90
33803;DHT22;20110;53.120;5.786;2022-12-08T00:44:26;-0.30;99.90
33803;DHT22;20110;53.120;5.786;2022-12-08T00:46:52;-0.50;99.90
33803;DHT22;20110;53.120;5.786;2022-12-08T00:49:18;-0.50;99.90
33803;DHT22;20110;53.120;5.786;2022-12-08T00:51:44;-0.40;99.90
33803;DHT22;20110;53.120;5.786;2022-12-08T00:54:10;-0.50;99.90
33803;DHT22;20110;53.120;5.786;2022-12-08T00:56:37;-0.60;99.90
33803;DHT22;20110;53.120;5.786;2022-12-08T00:59:05;-0.40;99.90
33803;DHT22;20110;53.120;5.786;2022-12-08T01:01:33;-0.30;99.90
33803;DHT22;20110;53.120;5.786;2022-12-08T01:04:07;0.50;99.90
33803;DHT22;20110;53.120;5.786;2022-12-08T01:06:35;0.90;99.90
33803;DHT22;20110;53.120;5.786;2022-12-08T01:09:03;1.20;99.90
33803;DHT22;20110;53.120;5.786;2022-12-08T01:11:30;0.70;99.90
33803;DHT22;20110;53.120;5.786;2022-12-08T01:13:56;0.50;99.90
33803;DHT22;20110;53.120;5.786;2022-12-08T01:16:25;0.60;99.90
33803;DHT22;20110;53.120;5.786;2022-12-08T01:18:53;0.50;99.90
33803;DHT22;20110;53.120;5.786;2022-12-08T01:21:19;0.40;99.90
33803;DHT22;20110;53.120;5.786;2022-12-08T01:23:46;0.20;99.90
33803;DHT22;20110;53.120;5.786;2022-12-08T01:26:14;0.40;99.90
33803;DHT22;20110;53.120;5.786;2022-12-08T01:28:41;0.10;99.90
33803;DHT22;20110;53.120;5.786;2022-12-08T01:31:15;-0.30;99.90
33803;DHT22;20110;53.120;5.786;2022-12-08T01:33:42;-0.60;99.90
33803;DHT22;20110;53.120;5.786;2022-12-08T01:36:24;-0.60;99.90
33803;DHT22;20110;53.120;5.786;2022-12-08T01:38:56;-0.50;99.90
33803;DHT22;20110;53.120;5.786;2022-12-08T01:41:29;-0.20;99.90
33803;DHT22;20110;53.120;5.786;2022-12-08T01:46:39;-0.40;99.90
33803;DHT22;20110;53.120;5.786;2022-12-08T01:51:59;-0.70;99.90
33803;DHT22;20110;53.120;5.786;2022-12-08T01:54:33;-0.50;99.90
33803;DHT22;20110;53.120;5.786;2022-12-08T01:57:10;0.00;99.90
33803;DHT22;20110;53.120;5.786;2022-12-08T01:59:47;0.30;99.90
33803;DHT22;20110;53.120;5.786;2022-12-08T02:02:17;0.80;99.90
33803;DHT22;20110;53.120;5.786;2022-12-08T02:04:43;1.40;99.90
33803;DHT22;20110;53.120;5.786;2022-12-08T02:07:11;0.90;99.90
33803;DHT22;20110;53.120;5.786;2022-12-08T02:09:39;0.50;99.90
33803;DHT22;20110;53.120;5.786;2022-12-08T02:12:06;0.60;99.90
33803;DHT22;20110;53.120;5.786;2022-12-08T02:14:33;0.70;99.90
33803;DHT22;20110;53.120;5.786;2022-12-08T02:17:03;0.50;99.90
33803;DHT22;20110;53.120;5.786;2022-12-08T02:20:09;0.30;99.90
33803;DHT22;20110;53.120;5.786;2022-12-08T02:32:56;-0.20;99.90
33803;DHT22;20110;53.120;5.786;2022-12-08T02:38:37;0.10;99.90
33803;DHT22;20110;53.120;5.786;2022-12-08T02:41:35;0.30;99.90
33803;DHT22;20110;53.120;5.786;2022-12-08T02:44:07;0.50;99.90
33803;DHT22;20110;53.120;5.786;2022-12-08T02:46:49;0.60;99.90
33803;DHT22;20110;53.120;5.786;2022-12-08T02:49:18;0.70;99.90
33803;DHT22;20110;53.120;5.786;2022-12-08T02:51:44;0.70;99.90
33803;DHT22;20110;53.120;5.786;2022-12-08T02:54:10;0.70;99.90
33803;DHT22;20110;53.120;5.786;2022-12-08T02:56:49;0.70;99.90
33803;DHT22;20110;53.120;5.786;2022-12-08T02:59:58;0.40;99.90
33803;DHT22;20110;53.120;5.786;2022-12-08T03:02:41;0.20;99.90
33803;DHT22;20110;53.120;5.786;2022-12-08T03:08:11;-0.80;99.90
33803;DHT22;20110;53.120;5.786;2022-12-08T03:11:01;-0.70;99.90
33803;DHT22;20110;53.120;5.786;2022-12-08T03:13:51;-0.80;99.90
33803;DHT22;20110;53.120;5.786;2022-12-08T03:16:22;-0.20;99.90
33803;DHT22;20110;53.120;5.786;2022-12-08T03:19:12;0.20;99.90
33803;DHT22;20110;53.120;5.786;2022-12-08T03:21:43;0.00;99.90
33803;DHT22;20110;53.120;5.786;2022-12-08T03:24:16;0.20;99.90
33803;DHT22;20110;53.120;5.786;2022-12-08T03:26:57;0.30;99.90
33803;DHT22;20110;53.120;5.786;2022-12-08T03:29:26;0.30;99.90
33803;DHT22;20110;53.120;5.786;2022-12-08T03:32:06;0.30;99.90
33803;DHT22;20110;53.120;5.786;2022-12-08T03:34:39;0.00;99.90
33803;DHT22;20110;53.120;5.786;2022-12-08T03:37:08;-0.30;99.90
33803;DHT22;20110;53.120;5.786;2022-12-08T03:39:34;-0.10;99.90
33803;DHT22;20110;53.120;5.786;2022-12-08T03:42:00;0.00;99.90
33803;DHT22;20110;53.120;5.786;2022-12-08T03:44:25;-0.10;99.90
33803;DHT22;20110;53.120;5.786;2022-12-08T03:46:51;-0.50;99.90
33803;DHT22;20110;53.120;5.786;2022-12-08T03:49:17;-0.30;99.90
33803;DHT22;20110;53.120;5.786;2022-12-08T03:51:43;-0.40;99.90
33803;DHT22;20110;53.120;5.786;2022-12-08T03:54:08;-0.60;99.90
33803;DHT22;20110;53.120;5.786;2022-12-08T03:56:36;-0.40;99.90
33803;DHT22;20110;53.120;5.786;2022-12-08T03:59:04;-0.40;99.90
33803;DHT22;20110;53.120;5.786;2022-12-08T04:01:31;-0.30;99.90
33803;DHT22;20110;53.120;5.786;2022-12-08T04:03:57;-0.10;99.90
33803;DHT22;20110;53.120;5.786;2022-12-08T04:06:23;-0.10;99.90
33803;DHT22;20110;53.120;5.786;2022-12-08T04:08:49;0.00;99.90
33803;DHT22;20110;53.120;5.786;2022-12-08T04:11:17;0.00;99.90
33803;DHT22;20110;53.120;5.786;2022-12-08T04:13:43;-0.10;99.90
33803;DHT22;20110;53.120;5.786;2022-12-08T04:16:22;-0.20;99.90
33803;DHT22;20110;53.120;5.786;2022-12-08T04:18:49;-0.10;99.90
33803;DHT22;20110;53.120;5.786;2022-12-08T04:21:16;-0.30;99.90
33803;DHT22;20110;53.120;5.786;2022-12-08T04:23:42;-0.20;99.90
33803;DHT22;20110;53.120;5.786;2022-12-08T04:26:08;0.00;99.90
33803;DHT22;20110;53.120;5.786;2022-12-08T04:28:34;-0.30;99.90
33803;DHT22;20110;53.120;5.786;2022-12-08T04:31:01;-0.10;99.90
33803;DHT22;20110;53.120;5.786;2022-12-08T04:33:28;-0.20;99.90
33803;DHT22;20110;53.120;5.786;2022-12-08T04:35:54;-0.20;99.90
33803;DHT22;20110;53.120;5.786;2022-12-08T04:38:20;0.10;99.90
33803;DHT22;20110;53.120;5.786;2022-12-08T04:40:46;-0.20;99.90
33803;DHT22;20110;53.120;5.786;2022-12-08T04:43:12;-0.10;99.90
33803;DHT22;20110;53.120;5.786;2022-12-08T04:45:41;-0.10;99.90
33803;DHT22;20110;53.120;5.786;2022-12-08T04:48:08;-0.40;99.90
33803;DHT22;20110;53.120;5.786;2022-12-08T04:50:39;-0.10;99.90
33803;DHT22;20110;53.120;5.786;2022-12-08T04:53:06;0.60;99.90
33803;DHT22;20110;53.120;5.786;2022-12-08T04:55:33;0.20;99.90
33803;DHT22;20110;53.120;5.786;2022-12-08T04:57:59;-0.20;99.90
33803;DHT22;20110;53.120;5.786;2022-12-08T05:00:25;-0.60;99.90
33803;DHT22;20110;53.120;5.786;2022-12-08T05:02:51;-0.70;99.90
33803;DHT22;20110;53.120;5.786;2022-12-08T05:05:16;-0.80;99.90
33803;DHT22;20110;53.120;5.786;2022-12-08T05:07:42;-0.80;99.90
33803;DHT22;20110;53.120;5.786;2022-12-08T05:10:08;-0.70;99.90
33803;DHT22;20110;53.120;5.786;2022-12-08T05:12:34;-0.70;99.90
33803;DHT22;20110;53.120;5.786;2022-12-08T05:15:00;-0.60;99.90
33803;DHT22;20110;53.120;5.786;2022-12-08T05:17:25;-0.60;99.90
33803;DHT22;20110;53.120;5.786;2022-12-08T05:19:51;-0.50;99.90
33803;DHT22;20110;53.120;5.786;2022-12-08T05:22:17;-0.50;99.90
33803;DHT22;20110;53.120;5.786;2022-12-08T05:24:43;-0.80;99.90
33803;DHT22;20110;53.120;5.786;2022-12-08T05:27:09;-0.70;99.90
33803;DHT22;20110;53.120;5.786;2022-12-08T05:29:35;-0.90;99.90
33803;DHT22;20110;53.120;5.786;2022-12-08T05:32:01;-1.10;99.90
33803;DHT22;20110;53.120;5.786;2022-12-08T05:34:27;-1.10;99.90
33803;DHT22;20110;53.120;5.786;2022-12-08T05:36:53;-1.00;99.90
33803;DHT22;20110;53.120;5.786;2022-12-08T05:39:19;-0.70;99.90
33803;DHT22;20110;53.120;5.786;2022-12-08T05:41:44;-0.70;99.90
33803;DHT22;20110;53.120;5.786;2022-12-08T05:44:10;-0.60;99.90
33803;DHT22;20110;53.120;5.786;2022-12-08T05:46:36;-0.60;99.90
33803;DHT22;20110;53.120;5.786;2022-12-08T05:49:02;-0.10;99.90
33803;DHT22;20110;53.120;5.786;2022-12-08T05:51:29;0.20;99.90
33803;DHT22;20110;53.120;5.786;2022-12-08T05:53:55;0.40;99.90
33803;DHT22;20110;53.120;5.786;2022-12-08T05:56:22;0.40;99.90
33803;DHT22;20110;53.120;5.786;2022-12-08T05:58:49;0.10;99.90
33803;DHT22;20110;53.120;5.786;2022-12-08T06:01:31;0.00;99.90
33803;DHT22;20110;53.120;5.786;2022-12-08T06:03:58;0.10;99.90
33803;DHT22;20110;53.120;5.786;2022-12-08T06:06:27;0.00;99.90
33803;DHT22;20110;53.120;5.786;2022-12-08T06:08:53;-0.20;99.90
33803;DHT22;20110;53.120;5.786;2022-12-08T06:11:24;-0.30;99.90
33803;DHT22;20110;53.120;5.786;2022-12-08T06:13:53;-0.20;99.90
33803;DHT22;20110;53.120;5.786;2022-12-08T06:16:20;0.10;99.90
33803;DHT22;20110;53.120;5.786;2022-12-08T06:18:46;0.20;99.90
33803;DHT22;20110;53.120;5.786;2022-12-08T06:21:14;0.20;99.90
33803;DHT22;20110;53.120;5.786;2022-12-08T06:23:41;-0.10;99.90
33803;DHT22;20110;53.120;5.786;2022-12-08T06:26:10;-0.30;99.90
33803;DHT22;20110;53.120;5.786;2022-12-08T06:28:38;-0.40;99.90
33803;DHT22;20110;53.120;5.786;2022-12-08T06:31:10;-0.30;99.90
33803;DHT22;20110;53.120;5.786;2022-12-08T06:33:44;-0.70;99.90
33803;DHT22;20110;53.120;5.786;2022-12-08T06:36:12;-1.00;99.90
33803;DHT22;20110;53.120;5.786;2022-12-08T06:38:39;-0.60;99.90
33803;DHT22;20110;53.120;5.786;2022-12-08T06:41:05;-0.70;99.90
33803;DHT22;20110;53.120;5.786;2022-12-08T06:43:32;-0.90;99.90
33803;DHT22;20110;53.120;5.786;2022-12-08T06:45:59;-0.70;99.90
33803;DHT22;20110;53.120;5.786;2022-12-08T06:48:25;-0.80;99.90
33803;DHT22;20110;53.120;5.786;2022-12-08T06:50:51;-0.70;99.90
33803;DHT22;20110;53.120;5.786;2022-12-08T06:53:18;-0.50;99.90
33803;DHT22;20110;53.120;5.786;2022-12-08T06:55:50;-0.50;99.90
33803;DHT22;20110;53.120;5.786;2022-12-08T06:58:18;-0.30;99.90
33803;DHT22;20110;53.120;5.786;2022-12-08T07:00:44;-0.20;99.90
33803;DHT22;20110;53.120;5.786;2022-12-08T07:03:11;-0.30;99.90
33803;DHT22;20110;53.120;5.786;2022-12-08T07:05:38;-0.50;99.90
33803;DHT22;20110;53.120;5.786;2022-12-08T07:08:04;-0.70;99.90
33803;DHT22;20110;53.120;5.786;2022-12-08T07:10:32;-1.00;99.90
33803;DHT22;20110;53.120;5.786;2022-12-08T07:12:58;-1.00;99.90
33803;DHT22;20110;53.120;5.786;2022-12-08T07:15:23;-1.00;99.90
33803;DHT22;20110;53.120;5.786;2022-12-08T07:17:49;-1.10;99.90
33803;DHT22;20110;53.120;5.786;2022-12-08T07:20:16;-0.70;99.90
33803;DHT22;20110;53.120;5.786;2022-12-08T07:22:50;-0.70;99.90
33803;DHT22;20110;53.120;5.786;2022-12-08T07:25:17;-0.80;99.90
33803;DHT22;20110;53.120;5.786;2022-12-08T07:27:44;-0.70;99.90
33803;DHT22;20110;53.120;5.786;2022-12-08T07:30:10;-0.60;99.90
33803;DHT22;20110;53.120;5.786;2022-12-08T07:32:37;-0.90;99.90
33803;DHT22;20110;53.120;5.786;2022-12-08T07:35:05;-0.80;99.90
33803;DHT22;20110;53.120;5.786;2022-12-08T07:37:33;-0.80;99.90
33803;DHT22;20110;53.120;5.786;2022-12-08T07:39:59;-0.90;99.90
33803;DHT22;20110;53.120;5.786;2022-12-08T07:42:25;-0.90;99.90
33803;DHT22;20110;53.120;5.786;2022-12-08T07:44:51;-0.80;99.90
33803;DHT22;20110;53.120;5.786;2022-12-08T07:47:16;-0.60;99.90
33803;DHT22;20110;53.120;5.786;2022-12-08T07:49:42;-0.30;99.90
33803;DHT22;20110;53.120;5.786;2022-12-08T07:52:08;-0.60;99.90
33803;DHT22;20110;53.120;5.786;2022-12-08T07:54:34;-0.80;99.90
33803;DHT22;20110;53.120;5.786;2022-12-08T07:56:59;-0.90;99.90
33803;DHT22;20110;53.120;5.786;2022-12-08T07:59:28;-1.10;99.90
33803;DHT22;20110;53.120;5.786;2022-12-08T08:01:54;-1.10;99.90
33803;DHT22;20110;53.120;5.786;2022-12-08T08:04:19;-1.10;99.90
33803;DHT22;20110;53.120;5.786;2022-12-08T08:06:45;-0.90;99.90
33803;DHT22;20110;53.120;5.786;2022-12-08T08:09:12;-1.00;99.90
33803;DHT22;20110;53.120;5.786;2022-12-08T08:11:38;-0.80;99.90
33803;DHT22;20110;53.120;5.786;2022-12-08T08:14:04;-0.80;99.90
33803;DHT22;20110;53.120;5.786;2022-12-08T08:16:29;-0.90;99.90
33803;DHT22;20110;53.120;5.786;2022-12-08T08:18:55;-1.00;99.90
33803;DHT22;20110;53.120;5.786;2022-12-08T08:21:21;-0.70;99.90
33803;DHT22;20110;53.120;5.786;2022-12-08T08:23:47;-0.30;99.90
33803;DHT22;20110;53.120;5.786;2022-12-08T08:26:13;-0.40;99.90
33803;DHT22;20110;53.120;5.786;2022-12-08T08:28:39;-0.30;99.90
33803;DHT22;20110;53.120;5.786;2022-12-08T08:31:05;-0.20;99.90
33803;DHT22;20110;53.120;5.786;2022-12-08T08:33:31;-0.10;99.90
33803;DHT22;20110;53.120;5.786;2022-12-08T08:35:58;0.00;99.90
33803;DHT22;20110;53.120;5.786;2022-12-08T08:38:24;0.10;99.90
33803;DHT22;20110;53.120;5.786;2022-12-08T08:40:50;0.00;99.90
33803;DHT22;20110;53.120;5.786;2022-12-08T08:43:16;-0.30;99.90
33803;DHT22;20110;53.120;5.786;2022-12-08T08:45:58;-0.30;99.90
33803;DHT22;20110;53.120;5.786;2022-12-08T08:48:26;0.00;99.90
33803;DHT22;20110;53.120;5.786;2022-12-08T08:50:55;-0.10;99.90
33803;DHT22;20110;53.120;5.786;2022-12-08T08:53:21;-0.10;99.90
33803;DHT22;20110;53.120;5.786;2022-12-08T08:55:48;-0.20;99.90
33803;DHT22;20110;53.120;5.786;2022-12-08T08:58:15;-0.20;99.90
33803;DHT22;20110;53.120;5.786;2022-12-08T09:00:41;-0.70;99.90
33803;DHT22;20110;53.120;5.786;2022-12-08T09:03:07;-1.10;99.90
33803;DHT22;20110;53.120;5.786;2022-12-08T09:05:33;-1.60;99.90
33803;DHT22;20110;53.120;5.786;2022-12-08T09:07:59;-1.90;99.90
33803;DHT22;20110;53.120;5.786;2022-12-08T09:10:24;-1.90;99.90
33803;DHT22;20110;53.120;5.786;2022-12-08T09:12:51;-1.70;99.90
33803;DHT22;20110;53.120;5.786;2022-12-08T09:15:17;-1.80;99.90
33803;DHT22;20110;53.120;5.786;2022-12-08T09:17:45;-1.60;99.90
33803;DHT22;20110;53.120;5.786;2022-12-08T09:20:11;-1.40;99.90
33803;DHT22;20110;53.120;5.786;2022-12-08T09:22:36;-1.00;99.90
33803;DHT22;20110;53.120;5.786;2022-12-08T09:25:02;-0.50;99.90
33803;DHT22;20110;53.120;5.786;2022-12-08T09:27:30;0.00;99.90
33803;DHT22;20110;53.120;5.786;2022-12-08T09:29:56;0.30;99.90
33803;DHT22;20110;53.120;5.786;2022-12-08T09:32:21;0.80;99.90
33803;DHT22;20110;53.120;5.786;2022-12-08T09:34:47;1.20;99.90
33803;DHT22;20110;53.120;5.786;2022-12-08T09:37:13;1.50;99.90
33803;DHT22;20110;53.120;5.786;2022-12-08T09:39:39;1.70;99.90
33803;DHT22;20110;53.120;5.786;2022-12-08T09:42:06;1.80;99.90
33803;DHT22;20110;53.120;5.786;2022-12-08T09:47:32;2.00;99.90
33803;DHT22;20110;53.120;5.786;2022-12-08T09:51:07;1.80;99.90
33803;DHT22;20110;53.120;5.786;2022-12-08T09:53:16;1.60;99.90
33803;DHT22;20110;53.120;5.786;2022-12-08T09:55:56;1.50;99.90
33803;DHT22;20110;53.120;5.786;2022-12-08T10:01:18;1.50;99.90
33803;DHT22;20110;53.120;5.786;2022-12-08T10:03:45;1.50;99.90
33803;DHT22;20110;53.120;5.786;2022-12-08T10:06:28;1.50;99.90
33803;DHT22;20110;53.120;5.786;2022-12-08T10:09:37;1.60;99.90
33803;DHT22;20110;53.120;5.786;2022-12-08T10:17:56;2.00;99.90
33803;DHT22;20110;53.120;5.786;2022-12-08T10:20:36;2.10;99.90
33803;DHT22;20110;53.120;5.786;2022-12-08T10:23:47;2.10;99.90
33803;DHT22;20110;53.120;5.786;2022-12-08T10:26:13;2.10;99.90
33803;DHT22;20110;53.120;5.786;2022-12-08T10:28:42;2.10;99.90
33803;DHT22;20110;53.120;5.786;2022-12-08T10:31:14;2.00;99.90
33803;DHT22;20110;53.120;5.786;2022-12-08T10:33:57;2.00;99.90
33803;DHT22;20110;53.120;5.786;2022-12-08T10:36:47;2.00;99.90
33803;DHT22;20110;53.120;5.786;2022-12-08T10:47:38;1.70;99.90
33803;DHT22;20110;53.120;5.786;2022-12-08T10:53:14;1.50;99.90
33803;DHT22;20110;53.120;5.786;2022-12-08T10:55:48;1.50;99.90
33803;DHT22;20110;53.120;5.786;2022-12-08T10:58:40;1.50;99.90
33803;DHT22;20110;53.120;5.786;2022-12-08T11:03:54;1.60;99.90
33803;DHT22;20110;53.120;5.786;2022-12-08T11:06:25;1.60;99.90
33803;DHT22;20110;53.120;5.786;2022-12-08T11:08:59;1.70;99.90
33803;DHT22;20110;53.120;5.786;2022-12-08T11:11:43;2.00;99.90
33803;DHT22;20110;53.120;5.786;2022-12-08T11:17:15;2.30;99.90
33803;DHT22;20110;53.120;5.786;2022-12-08T11:19:59;2.60;99.90
33803;DHT22;20110;53.120;5.786;2022-12-08T11:22:39;3.00;99.90
33803;DHT22;20110;53.120;5.786;2022-12-08T11:27:45;3.60;99.90
33803;DHT22;20110;53.120;5.786;2022-12-08T11:32:57;4.10;99.90
33803;DHT22;20110;53.120;5.786;2022-12-08T11:35:40;4.40;99.90
33803;DHT22;20110;53.120;5.786;2022-12-08T11:38:18;4.50;99.90
33803;DHT22;20110;53.120;5.786;2022-12-08T11:40:49;4.70;99.90
33803;DHT22;20110;53.120;5.786;2022-12-08T11:46:01;4.50;99.90
33803;DHT22;20110;53.120;5.786;2022-12-08T11:48:53;4.40;99.90
33803;DHT22;20110;53.120;5.786;2022-12-08T11:51:33;4.10;99.90
33803;DHT22;20110;53.120;5.786;2022-12-08T11:54:12;4.20;99.90
33803;DHT22;20110;53.120;5.786;2022-12-08T11:56:45;3.80;99.90
33803;DHT22;20110;53.120;5.786;2022-12-08T11:59:28;3.60;99.90
33803;DHT22;20110;53.120;5.786;2022-12-08T12:01:58;3.30;99.90
33803;DHT22;20110;53.120;5.786;2022-12-08T12:04:34;3.30;99.90
33803;DHT22;20110;53.120;5.786;2022-12-08T12:07:56;3.20;99.90
33803;DHT22;20110;53.120;5.786;2022-12-08T12:14:10;3.20;99.90
33803;DHT22;20110;53.120;5.786;2022-12-08T12:16:59;3.20;99.90
33803;DHT22;20110;53.120;5.786;2022-12-08T12:19:32;3.20;99.90
33803;DHT22;20110;53.120;5.786;2022-12-08T12:22:12;3.40;99.90
33803;DHT22;20110;53.120;5.786;2022-12-08T12:24:44;3.70;99.90
33803;DHT22;20110;53.120;5.786;2022-12-08T12:29:45;4.40;99.90
33803;DHT22;20110;53.120;5.786;2022-12-08T12:32:15;4.50;99.90
33803;DHT22;20110;53.120;5.786;2022-12-08T12:34:55;4.50;99.90
33803;DHT22;20110;53.120;5.786;2022-12-08T12:37:38;4.30;99.90
33803;DHT22;20110;53.120;5.786;2022-12-08T12:40:24;4.10;99.90
33803;DHT22;20110;53.120;5.786;2022-12-08T12:47:50;4.00;99.90
33803;DHT22;20110;53.120;5.786;2022-12-08T12:55:54;4.00;99.90
33803;DHT22;20110;53.120;5.786;2022-12-08T13:03:41;3.80;99.90
33803;DHT22;20110;53.120;5.786;2022-12-08T13:06:10;3.80;99.90
33803;DHT22;20110;53.120;5.786;2022-12-08T13:08:48;3.90;99.90
33803;DHT22;20110;53.120;5.786;2022-12-08T13:11:15;4.10;99.90
33803;DHT22;20110;53.120;5.786;2022-12-08T13:14:03;4.20;99.90
33803;DHT22;20110;53.120;5.786;2022-12-08T13:16:34;4.20;99.90
33803;DHT22;20110;53.120;5.786;2022-12-08T13:19:12;4.20;99.90
33803;DHT22;20110;53.120;5.786;2022-12-08T13:21:40;4.10;99.90
33803;DHT22;20110;53.120;5.786;2022-12-08T13:29:29;3.70;99.90
33803;DHT22;20110;53.120;5.786;2022-12-08T13:31:57;3.50;99.90
33803;DHT22;20110;53.120;5.786;2022-12-08T13:37:31;3.50;99.90
33803;DHT22;20110;53.120;5.786;2022-12-08T13:40:23;3.30;99.90
33803;DHT22;20110;53.120;5.786;2022-12-08T13:45:41;3.30;99.90
33803;DHT22;20110;53.120;5.786;2022-12-08T13:48:30;3.40;99.90
33803;DHT22;20110;53.120;5.786;2022-12-08T13:51:27;3.30;99.90
33803;DHT22;20110;53.120;5.786;2022-12-08T13:56:55;3.10;99.90
33803;DHT22;20110;53.120;5.786;2022-12-08T13:59:23;3.20;99.90
33803;DHT22;20110;53.120;5.786;2022-12-08T14:01:57;3.20;99.90
33803;DHT22;20110;53.120;5.786;2022-12-08T14:04:29;3.10;99.90
33803;DHT22;20110;53.120;5.786;2022-12-08T14:06:58;3.00;99.90
33803;DHT22;20110;53.120;5.786;2022-12-08T14:09:31;2.90;99.90
33803;DHT22;20110;53.120;5.786;2022-12-08T14:12:22;2.90;99.90
33803;DHT22;20110;53.120;5.786;2022-12-08T14:15:03;2.80;99.90
33803;DHT22;20110;53.120;5.786;2022-12-08T14:17:32;2.80;99.90
33803;DHT22;20110;53.120;5.786;2022-12-08T14:20:00;2.70;99.90
33803;DHT22;20110;53.120;5.786;2022-12-08T14:22:33;2.60;99.90
33803;DHT22;20110;53.120;5.786;2022-12-08T14:25:02;2.60;99.90
33803;DHT22;20110;53.120;5.786;2022-12-08T14:27:35;2.50;99.90
33803;DHT22;20110;53.120;5.786;2022-12-08T14:30:24;2.30;99.90
33803;DHT22;20110;53.120;5.786;2022-12-08T14:32:54;2.10;99.90
33803;DHT22;20110;53.120;5.786;2022-12-08T14:35:24;2.00;99.90
33803;DHT22;20110;53.120;5.786;2022-12-08T14:37:59;1.90;99.90
33803;DHT22;20110;53.120;5.786;2022-12-08T14:40:38;1.80;99.90
33803;DHT22;20110;53.120;5.786;2022-12-08T14:51:04;1.50;99.90
33803;DHT22;20110;53.120;5.786;2022-12-08T14:54:03;1.50;99.90
33803;DHT22;20110;53.120;5.786;2022-12-08T15:01:42;1.50;99.90
33803;DHT22;20110;53.120;5.786;2022-12-08T15:04:28;1.50;99.90
33803;DHT22;20110;53.120;5.786;2022-12-08T15:07:04;1.50;99.90
33803;DHT22;20110;53.120;5.786;2022-12-08T15:09:38;1.60;99.90
33803;DHT22;20110;53.120;5.786;2022-12-08T15:12:21;1.60;99.90
33803;DHT22;20110;53.120;5.786;2022-12-08T15:15:15;1.50;99.90
33803;DHT22;20110;53.120;5.786;2022-12-08T15:17:49;1.50;99.90
33803;DHT22;20110;53.120;5.786;2022-12-08T15:20:41;1.50;99.90
33803;DHT22;20110;53.120;5.786;2022-12-08T15:26:24;1.40;99.90
33803;DHT22;20110;53.120;5.786;2022-12-08T15:28:52;1.20;99.90
33803;DHT22;20110;53.120;5.786;2022-12-08T15:31:19;1.20;99.90
33803;DHT22;20110;53.120;5.786;2022-12-08T15:33:46;1.10;99.90
33803;DHT22;20110;53.120;5.786;2022-12-08T15:36:12;1.00;99.90
33803;DHT22;20110;53.120;5.786;2022-12-08T15:38:38;0.90;99.90
33803;DHT22;20110;53.120;5.786;2022-12-08T15:41:04;0.70;99.90
33803;DHT22;20110;53.120;5.786;2022-12-08T15:43:30;0.70;99.90
33803;DHT22;20110;53.120;5.786;2022-12-08T15:45:57;0.70;99.90
33803;DHT22;20110;53.120;5.786;2022-12-08T15:48:24;0.60;99.90
33803;DHT22;20110;53.120;5.786;2022-12-08T15:50:52;0.60;99.90
33803;DHT22;20110;53.120;5.786;2022-12-08T15:53:18;0.60;99.90
33803;DHT22;20110;53.120;5.786;2022-12-08T15:55:45;0.40;99.90
33803;DHT22;20110;53.120;5.786;2022-12-08T15:58:22;0.30;99.90
33803;DHT22;20110;53.120;5.786;2022-12-08T16:00:50;0.20;99.90
33803;DHT22;20110;53.120;5.786;2022-12-08T16:03:25;0.20;99.90
33803;DHT22;20110;53.120;5.786;2022-12-08T16:05:56;0.10;99.90
33803;DHT22;20110;53.120;5.786;2022-12-08T16:08:27;0.00;99.90
33803;DHT22;20110;53.120;5.786;2022-12-08T16:10:55;0.00;99.90
33803;DHT22;20110;53.120;5.786;2022-12-08T16:13:40;-0.20;99.90
33803;DHT22;20110;53.120;5.786;2022-12-08T16:16:20;-0.20;99.90
33803;DHT22;20110;53.120;5.786;2022-12-08T16:18:50;-0.40;99.90
33803;DHT22;20110;53.120;5.786;2022-12-08T16:21:16;-0.40;99.90
33803;DHT22;20110;53.120;5.786;2022-12-08T16:23:43;-0.50;99.90
33803;DHT22;20110;53.120;5.786;2022-12-08T16:26:14;-0.50;99.90
33803;DHT22;20110;53.120;5.786;2022-12-08T16:28:42;-0.50;99.90
33803;DHT22;20110;53.120;5.786;2022-12-08T16:31:13;-0.50;99.90
33803;DHT22;20110;53.120;5.786;2022-12-08T16:33:39;-0.50;99.90
33803;DHT22;20110;53.120;5.786;2022-12-08T16:36:06;-0.50;99.90
33803;DHT22;20110;53.120;5.786;2022-12-08T16:38:33;-0.50;99.90
33803;DHT22;20110;53.120;5.786;2022-12-08T16:41:00;-0.40;99.90
33803;DHT22;20110;53.120;5.786;2022-12-08T16:43:44;-0.50;99.90
33803;DHT22;20110;53.120;5.786;2022-12-08T16:46:17;-0.50;99.90
33803;DHT22;20110;53.120;5.786;2022-12-08T16:48:47;-0.60;99.90
33803;DHT22;20110;53.120;5.786;2022-12-08T16:51:17;-0.70;99.90
33803;DHT22;20110;53.120;5.786;2022-12-08T16:53:44;-0.60;99.90
33803;DHT22;20110;53.120;5.786;2022-12-08T16:56:18;-0.70;99.90
33803;DHT22;20110;53.120;5.786;2022-12-08T16:58:46;-0.60;99.90
33803;DHT22;20110;53.120;5.786;2022-12-08T17:01:13;-0.60;99.90
33803;DHT22;20110;53.120;5.786;2022-12-08T17:03:43;-0.50;99.90
33803;DHT22;20110;53.120;5.786;2022-12-08T17:06:17;-0.50;99.90
33803;DHT22;20110;53.120;5.786;2022-12-08T17:08:45;-0.50;99.90
33803;DHT22;20110;53.120;5.786;2022-12-08T17:11:22;-0.50;99.90
33803;DHT22;20110;53.120;5.786;2022-12-08T17:13:50;-0.60;99.90
33803;DHT22;20110;53.120;5.786;2022-12-08T17:16:17;-0.60;99.90
33803;DHT22;20110;53.120;5.786;2022-12-08T17:18:44;-0.70;99.90
33803;DHT22;20110;53.120;5.786;2022-12-08T17:21:12;-0.70;99.90
33803;DHT22;20110;53.120;5.786;2022-12-08T17:23:40;-0.70;99.90
33803;DHT22;20110;53.120;5.786;2022-12-08T17:26:06;-0.70;99.90
33803;DHT22;20110;53.120;5.786;2022-12-08T17:28:34;-0.80;99.90
33803;DHT22;20110;53.120;5.786;2022-12-08T17:31:00;-0.80;99.90
33803;DHT22;20110;53.120;5.786;2022-12-08T17:33:27;-0.80;99.90
33803;DHT22;20110;53.120;5.786;2022-12-08T17:35:54;-0.90;99.90
33803;DHT22;20110;53.120;5.786;2022-12-08T17:38:20;-0.60;99.90
33803;DHT22;20110;53.120;5.786;2022-12-08T17:40:48;-1.30;99.90
33803;DHT22;20110;53.120;5.786;2022-12-08T17:43:14;-2.00;99.90
33803;DHT22;20110;53.120;5.786;2022-12-08T17:45:46;-2.70;99.90
33803;DHT22;20110;53.120;5.786;2022-12-08T17:48:14;-3.30;99.90
33803;DHT22;20110;53.120;5.786;2022-12-08T17:50:41;-3.50;99.90
33803;DHT22;20110;53.120;5.786;2022-12-08T17:53:10;-3.30;99.90